createdAt,value
2023-07-12T04:41:08.908Z,15.64
2023-07-12T04:43:37.956Z,15.32
2023-07-12T04:46:06.275Z,15.16
2023-07-12T04:48:35.543Z,15.36
2023-07-12T04:51:05.425Z,15.87
2023-07-12T04:53:35.087Z,16.02
2023-07-12T04:56:03.829Z,15.94
2023-07-12T04:58:34.599Z,15.71
2023-07-12T05:01:03.724Z,15.57
2023-07-12T05:03:32.576Z,15.44
2023-07-12T05:06:13.638Z,15.12
2023-07-12T05:08:49.724Z,15.12
2023-07-12T05:11:18.771Z,14.73
2023-07-12T05:13:48.553Z,14.90
2023-07-12T05:16:17.067Z,14.91
2023-07-12T05:18:45.531Z,15.34
2023-07-12T05:21:14.110Z,15.31
2023-07-12T05:23:43.349Z,15.24
2023-07-12T05:26:12.052Z,15.19
2023-07-12T05:28:40.582Z,15.51
2023-07-12T05:31:11.729Z,15.53
2023-07-12T05:33:43.529Z,15.26
2023-07-12T05:36:12.482Z,15.33
2023-07-12T05:38:40.847Z,15.08
2023-07-12T05:41:09.604Z,15.14
2023-07-12T05:43:41.121Z,15.23
2023-07-12T05:46:10.865Z,14.92
2023-07-12T05:48:39.573Z,15.09
2023-07-12T05:51:09.886Z,15.05
2023-07-12T05:53:38.828Z,15.12
2023-07-12T05:56:08.129Z,15.02
2023-07-12T05:58:37.061Z,15.25
2023-07-12T06:01:06.829Z,15.54
2023-07-12T06:03:38.699Z,15.48
2023-07-12T06:06:15.848Z,15.14
2023-07-12T06:08:47.166Z,14.90
2023-07-12T06:11:20.020Z,14.79
2023-07-12T06:13:49.864Z,14.81
2023-07-12T06:16:19.703Z,14.82
2023-07-12T06:18:55.475Z,14.86
2023-07-12T06:21:26.956Z,15.11
2023-07-12T06:23:58.582Z,15.55
2023-07-12T06:26:26.953Z,15.75
2023-07-12T06:28:55.605Z,15.93
2023-07-12T06:31:24.499Z,16.13
2023-07-12T06:33:54.245Z,15.92
2023-07-12T06:36:22.591Z,15.55
2023-07-12T06:38:51.023Z,15.27
2023-07-12T06:41:19.350Z,15.10
2023-07-12T06:43:47.772Z,15.18
2023-07-12T06:46:17.419Z,15.00
2023-07-12T06:48:46.423Z,15.20
2023-07-12T06:51:16.286Z,15.31
2023-07-12T06:53:44.868Z,15.39
2023-07-12T06:56:13.140Z,15.26
2023-07-12T06:58:41.602Z,15.95
2023-07-12T07:01:11.348Z,18.14
2023-07-12T07:03:40.148Z,19.46
2023-07-12T07:06:08.465Z,18.86
2023-07-12T07:08:38.305Z,18.01
2023-07-12T07:11:07.004Z,17.79
2023-07-12T07:13:35.694Z,17.35
2023-07-12T07:16:05.033Z,18.51
2023-07-12T07:18:36.253Z,17.79
2023-07-12T07:21:05.756Z,18.58
2023-07-12T07:23:35.037Z,17.67
2023-07-12T07:26:07.059Z,16.92
2023-07-12T07:28:37.373Z,16.45
2023-07-12T07:31:05.878Z,16.49
2023-07-12T07:33:34.336Z,16.25
2023-07-12T07:36:02.632Z,16.66
2023-07-12T07:38:31.367Z,16.62
2023-07-12T07:40:59.880Z,16.56
2023-07-12T07:43:29.566Z,16.59
2023-07-12T07:45:57.973Z,16.31
2023-07-12T07:48:26.436Z,16.15
2023-07-12T07:50:55.793Z,16.15
2023-07-12T07:53:24.436Z,16.24
2023-07-12T07:55:52.845Z,16.11
2023-07-12T07:58:22.642Z,16.07
2023-07-12T08:00:53.478Z,16.37
2023-07-12T08:03:22.278Z,16.64
2023-07-12T08:05:51.052Z,16.71
2023-07-12T08:08:21.564Z,16.71
2023-07-12T08:10:49.880Z,16.51
2023-07-12T08:13:18.597Z,16.24
2023-07-12T08:15:47.066Z,15.91
2023-07-12T08:18:17.353Z,15.87
2023-07-12T08:20:45.784Z,16.07
2023-07-12T08:23:14.700Z,16.20
2023-07-12T08:25:43.113Z,15.97
2023-07-12T08:28:11.520Z,15.70
2023-07-12T08:30:39.924Z,15.98
2023-07-12T08:33:08.276Z,16.07
2023-07-12T08:35:48.273Z,15.83
2023-07-12T08:38:18.473Z,15.60
2023-07-12T08:40:49.798Z,15.84
2023-07-12T08:43:22.368Z,15.98
2023-07-12T08:45:53.495Z,15.71
2023-07-12T08:48:24.490Z,15.56
2023-07-12T08:50:54.480Z,15.63
2023-07-12T08:53:27.406Z,15.66
2023-07-12T08:55:56.956Z,15.68
2023-07-12T08:58:27.814Z,15.74
2023-07-12T09:01:04.172Z,15.51
2023-07-12T09:03:32.654Z,15.34
2023-07-12T09:06:02.815Z,15.25
2023-07-12T09:08:35.460Z,15.12
2023-07-12T09:11:04.125Z,15.23
2023-07-12T09:13:37.089Z,15.18
2023-07-12T09:16:06.818Z,14.96
2023-07-12T09:18:38.189Z,14.99
2023-07-12T09:21:16.876Z,15.21
2023-07-12T09:23:47.606Z,15.15
2023-07-12T09:26:24.814Z,15.30
2023-07-12T09:28:54.744Z,15.09
2023-07-12T09:31:25.105Z,15.24
2023-07-12T09:33:55.913Z,14.87
2023-07-12T09:36:25.767Z,14.95
2023-07-12T09:38:54.178Z,14.75
2023-07-12T09:41:25.725Z,14.63
2023-07-12T09:43:57.249Z,14.67
2023-07-12T09:46:33.537Z,14.52
2023-07-12T09:49:06.251Z,14.66
2023-07-12T09:51:44.039Z,14.80
2023-07-12T09:54:23.324Z,14.70
2023-07-12T09:56:56.169Z,14.84
2023-07-12T09:59:32.255Z,15.20
2023-07-12T10:02:10.978Z,15.40
2023-07-12T10:04:42.429Z,15.34
2023-07-12T10:07:17.991Z,15.22
2023-07-12T10:09:49.280Z,14.86
2023-07-12T10:12:25.188Z,14.87
2023-07-12T10:14:55.270Z,15.06
2023-07-12T10:17:31.050Z,15.28
2023-07-12T10:19:59.554Z,15.24
2023-07-12T10:22:34.253Z,15.42
2023-07-12T10:25:05.914Z,15.92
2023-07-12T10:27:37.544Z,16.39
2023-07-12T10:30:11.577Z,16.80
2023-07-12T10:32:44.237Z,17.06
2023-07-12T10:35:19.423Z,16.72
2023-07-12T10:37:53.361Z,16.64
2023-07-12T10:40:26.166Z,16.63
2023-07-12T10:42:57.158Z,16.43
2023-07-12T10:45:28.175Z,16.89
2023-07-12T10:47:57.245Z,17.11
2023-07-12T10:50:29.930Z,17.27
2023-07-12T10:53:03.865Z,17.08
2023-07-12T10:55:44.175Z,16.90
2023-07-12T10:58:25.886Z,16.82
2023-07-12T11:00:56.398Z,16.22
2023-07-12T11:03:35.488Z,16.17
2023-07-12T11:06:09.125Z,16.48
2023-07-12T11:08:41.369Z,16.36
2023-07-12T11:11:43.537Z,16.30
2023-07-12T11:14:27.855Z,16.26
2023-07-12T11:17:16.103Z,16.69
2023-07-12T11:19:53.192Z,16.54
2023-07-12T11:22:22.883Z,16.25
2023-07-12T11:25:01.888Z,15.93
2023-07-12T11:27:55.656Z,15.49
2023-07-12T11:30:28.176Z,15.20
2023-07-12T11:33:00.546Z,15.39
2023-07-12T11:35:44.552Z,15.73
2023-07-12T11:38:17.363Z,16.02
2023-07-12T11:40:49.008Z,16.10
2023-07-12T11:43:35.761Z,16.15
2023-07-12T11:46:07.072Z,16.04
2023-07-12T11:48:36.422Z,15.89
2023-07-12T11:51:10.453Z,15.62
2023-07-12T11:53:40.443Z,15.34
2023-07-12T11:56:16.788Z,15.32
2023-07-12T11:58:46.480Z,15.47
2023-07-12T12:01:18.976Z,15.51
2023-07-12T12:03:50.684Z,15.64
2023-07-12T12:06:20.158Z,15.61
2023-07-12T12:08:52.125Z,15.66
2023-07-12T12:11:22.538Z,15.85
2023-07-12T12:13:54.009Z,15.88
2023-07-12T12:16:25.132Z,16.43
2023-07-12T12:18:59.247Z,16.17
2023-07-12T12:21:29.166Z,16.27
2023-07-12T12:23:59.183Z,16.17
2023-07-12T12:26:31.642Z,16.17
2023-07-12T12:29:02.681Z,16.33
2023-07-12T12:31:32.893Z,16.49
2023-07-12T12:34:06.209Z,16.66
2023-07-12T12:36:35.833Z,16.74
2023-07-12T12:39:07.460Z,16.70
2023-07-12T12:41:40.186Z,16.67
2023-07-12T12:44:12.016Z,16.92
2023-07-12T12:54:29.168Z,16.90
2023-07-12T12:58:08.896Z,16.84
2023-07-12T13:02:28.142Z,17.02
2023-07-12T13:08:44.621Z,17.28
2023-07-12T13:17:00.995Z,17.41
2023-07-12T13:19:02.533Z,17.20
2023-07-12T13:21:18.962Z,17.02
2023-07-12T13:23:48.195Z,17.13
2023-07-12T13:26:18.527Z,17.27
2023-07-12T13:28:48.941Z,17.34
2023-07-12T13:31:21.348Z,17.65
2023-07-12T13:36:28.908Z,17.61
2023-07-12T13:46:36.684Z,17.74
2023-07-12T13:49:05.300Z,18.01
2023-07-12T13:51:33.791Z,17.77
2023-07-12T13:54:02.293Z,17.65
2023-07-12T13:56:46.443Z,17.36
2023-07-12T13:59:19.083Z,17.26
2023-07-12T14:03:05.403Z,17.14
2023-07-12T14:04:50.540Z,17.08
2023-07-12T14:10:13.378Z,17.08
2023-07-12T14:12:42.593Z,17.05
2023-07-12T14:15:17.534Z,17.19
2023-07-12T14:17:46.167Z,17.10
2023-07-12T14:20:14.602Z,17.22
2023-07-12T14:22:43.496Z,17.58
2023-07-12T14:25:17.865Z,17.50
2023-07-12T14:27:46.315Z,17.41
2023-07-12T14:32:50.397Z,17.31
2023-07-12T14:35:22.185Z,17.16
2023-07-12T14:37:51.384Z,17.13
2023-07-12T14:40:21.153Z,17.17
2023-07-12T14:42:49.900Z,17.15
2023-07-12T14:45:21.969Z,17.10
2023-07-12T14:47:50.811Z,17.06
2023-07-12T14:50:21.822Z,17.01
2023-07-12T14:52:50.409Z,16.92
2023-07-12T14:55:20.087Z,16.85
2023-07-12T15:00:22.394Z,16.93
2023-07-12T15:02:54.654Z,17.03
2023-07-12T15:05:23.446Z,17.13
2023-07-12T15:07:52.601Z,17.26
2023-07-12T15:10:22.124Z,17.22
2023-07-12T15:12:52.395Z,17.14
2023-07-12T15:15:24.273Z,17.16
2023-07-12T15:18:00.218Z,17.06
2023-07-12T15:20:28.969Z,17.11
2023-07-12T15:22:59.031Z,17.00
2023-07-12T15:25:29.292Z,16.92
2023-07-12T15:27:58.709Z,16.90
2023-07-12T15:30:30.191Z,16.95
2023-07-12T15:33:00.017Z,16.93
2023-07-12T15:35:31.247Z,17.00
2023-07-12T15:38:01.608Z,17.06
2023-07-12T15:40:52.505Z,17.01
2023-07-12T15:43:22.327Z,17.03
2023-07-12T15:45:53.045Z,17.09
2023-07-12T15:48:24.333Z,17.01
2023-07-12T15:50:55.679Z,17.09
2023-07-12T15:53:25.342Z,17.16
2023-07-12T15:55:54.009Z,17.04
2023-07-12T15:58:30.859Z,16.89
2023-07-12T16:01:02.122Z,16.90
2023-07-12T16:03:33.013Z,17.05
2023-07-12T16:06:02.496Z,17.06
2023-07-12T16:08:34.673Z,17.09
2023-07-12T16:11:06.528Z,16.97
2023-07-12T16:13:36.094Z,16.99
2023-07-12T16:16:07.942Z,16.94
2023-07-12T16:18:36.697Z,16.81
2023-07-12T16:21:06.933Z,16.83
2023-07-12T16:23:36.950Z,16.94
2023-07-12T16:26:07.674Z,17.06
2023-07-12T16:28:37.895Z,17.09
2023-07-12T16:31:29.666Z,17.15
2023-07-12T16:33:59.894Z,17.26
2023-07-12T16:36:28.850Z,17.41
2023-07-12T16:38:57.609Z,17.31
2023-07-12T16:41:28.330Z,17.11
2023-07-12T16:43:57.828Z,17.22
2023-07-12T16:46:30.804Z,17.30
2023-07-12T16:48:59.640Z,17.23
2023-07-12T16:51:30.285Z,17.28
2023-07-12T16:53:59.023Z,17.50
2023-07-12T16:56:29.051Z,17.38
2023-07-12T16:58:57.711Z,17.46
2023-07-12T17:01:29.841Z,17.39
2023-07-12T17:03:59.856Z,17.43
2023-07-12T17:06:29.790Z,17.58
2023-07-12T17:08:58.217Z,17.46
2023-07-12T17:11:29.205Z,17.29
2023-07-12T17:13:57.926Z,17.02
2023-07-12T17:16:29.583Z,16.94
2023-07-12T17:18:59.746Z,17.01
2023-07-12T17:21:28.268Z,17.12
2023-07-12T17:23:56.841Z,17.31
2023-07-12T17:26:25.244Z,17.14
2023-07-12T17:28:54.310Z,17.13
2023-07-12T17:31:25.742Z,17.25
2023-07-12T17:33:55.512Z,17.32
2023-07-12T17:36:25.226Z,17.18
2023-07-12T17:38:57.174Z,17.16
2023-07-12T17:41:27.868Z,16.75
2023-07-12T17:43:56.651Z,16.70
2023-07-12T17:46:25.746Z,16.65
2023-07-12T17:48:55.592Z,16.58
2023-07-12T17:51:26.106Z,16.68
2023-07-12T17:53:56.674Z,16.53
2023-07-12T17:56:25.480Z,16.09
2023-07-12T17:58:54.456Z,15.99
2023-07-12T18:01:24.294Z,15.73
2023-07-12T18:03:53.683Z,15.67
2023-07-12T18:06:26.784Z,16.08
2023-07-12T18:08:55.860Z,16.02
2023-07-12T18:11:28.344Z,15.99
2023-07-12T18:13:57.508Z,15.79
2023-07-12T18:16:26.448Z,15.84
2023-07-12T18:18:55.012Z,15.67
2023-07-12T18:21:27.282Z,15.66
2023-07-12T18:23:56.320Z,15.69
2023-07-12T18:26:25.948Z,15.76
2023-07-12T18:28:55.350Z,15.76
2023-07-12T18:31:26.697Z,16.01
2023-07-12T18:33:55.574Z,15.84
2023-07-12T18:36:26.517Z,15.76
2023-07-12T18:38:57.454Z,15.74
2023-07-12T18:41:27.480Z,15.69
2023-07-12T18:43:56.332Z,15.92
2023-07-12T18:46:25.601Z,15.99
2023-07-12T18:48:54.414Z,16.38
2023-07-12T18:51:26.650Z,16.46
2023-07-12T18:53:55.351Z,16.02
2023-07-12T18:56:26.415Z,15.92
2023-07-12T18:58:55.384Z,15.80
2023-07-12T19:01:25.545Z,15.67
2023-07-12T19:03:54.120Z,15.82
2023-07-12T19:06:25.176Z,15.68
2023-07-12T19:08:55.910Z,15.60
2023-07-12T19:11:27.424Z,15.55
2023-07-12T19:13:55.824Z,15.45
2023-07-12T19:16:24.927Z,15.30
2023-07-12T19:18:53.705Z,15.24
2023-07-12T19:21:27.367Z,15.23
2023-07-12T19:23:58.706Z,15.15
2023-07-12T19:26:28.497Z,15.33
2023-07-12T19:28:57.067Z,15.48
2023-07-12T19:31:27.638Z,15.68
2023-07-12T19:33:57.279Z,15.50
2023-07-12T19:36:26.762Z,15.31
2023-07-12T19:38:57.204Z,15.02
2023-07-12T19:41:28.946Z,15.18
2023-07-12T19:43:57.631Z,14.99
2023-07-12T19:46:26.120Z,15.24
2023-07-12T19:48:54.553Z,15.23
2023-07-12T19:51:26.971Z,15.09
2023-07-12T19:53:58.905Z,14.90
2023-07-12T19:56:27.882Z,14.99
2023-07-12T19:58:58.432Z,14.78
2023-07-12T20:01:28.635Z,14.67
2023-07-12T20:03:58.901Z,14.54
2023-07-12T20:06:28.103Z,14.59
2023-07-12T20:08:58.763Z,14.67
2023-07-12T20:11:27.990Z,14.56
2023-07-12T20:13:57.698Z,14.63
2023-07-12T20:16:28.778Z,14.59
2023-07-12T20:18:58.570Z,14.96
2023-07-12T20:21:27.090Z,14.75
2023-07-12T20:23:55.596Z,14.64
2023-07-12T20:26:25.332Z,14.66
2023-07-12T20:28:53.799Z,14.65
2023-07-12T20:31:22.514Z,14.82
2023-07-12T20:33:51.016Z,14.66
2023-07-12T20:36:19.441Z,14.90
2023-07-12T20:38:47.906Z,14.77
2023-07-12T20:41:17.111Z,14.73
2023-07-12T20:43:46.878Z,14.48
2023-07-12T20:46:15.968Z,14.44
2023-07-12T20:48:45.029Z,14.44
2023-07-12T20:51:15.025Z,14.37
2023-07-12T20:53:45.552Z,14.42
2023-07-12T20:56:15.970Z,14.46
2023-07-12T20:58:44.709Z,14.46
2023-07-12T21:01:16.155Z,14.48
